createdAt,value
2023-05-22T00:00:08.522Z,19.85
2023-05-22T00:02:43.208Z,19.88
2023-05-22T00:05:11.440Z,19.93
2023-05-22T00:07:38.929Z,19.82
2023-05-22T00:10:06.364Z,19.71
2023-05-22T00:12:33.030Z,20.08
2023-05-22T00:15:00.205Z,20.11
2023-05-22T00:17:26.947Z,19.97
2023-05-22T00:19:55.227Z,19.84
2023-05-22T00:22:22.008Z,19.57
2023-05-22T00:24:48.712Z,19.22
2023-05-22T00:27:15.342Z,19.39
2023-05-22T00:29:41.989Z,19.12
2023-05-22T00:32:08.611Z,19.07
2023-05-22T00:34:35.430Z,19.57
2023-05-22T00:37:02.066Z,19.26
2023-05-22T00:39:28.798Z,19.26
2023-05-22T00:41:55.414Z,19.19
2023-05-22T00:44:23.112Z,19.41
2023-05-22T00:46:49.817Z,19.17
2023-05-22T00:49:16.540Z,19.66
2023-05-22T00:51:43.153Z,19.76
2023-05-22T00:54:10.526Z,19.98
2023-05-22T00:56:37.157Z,19.59
2023-05-22T00:59:04.335Z,19.90
2023-05-22T01:01:33.816Z,19.85
2023-05-22T01:04:02.086Z,19.94
2023-05-22T01:06:32.230Z,19.38
2023-05-22T01:08:59.030Z,19.39
2023-05-22T01:11:28.431Z,18.88
2023-05-22T01:14:10.932Z,18.76
2023-05-22T01:16:41.932Z,18.98
2023-05-22T01:19:41.150Z,18.82
2023-05-22T01:22:26.630Z,18.87
2023-05-22T01:25:04.170Z,19.31
2023-05-22T01:27:49.129Z,19.43
2023-05-22T01:30:34.681Z,19.49
2023-05-22T01:33:02.941Z,19.08
2023-05-22T01:35:32.577Z,19.14
2023-05-22T01:38:00.249Z,19.14
2023-05-22T01:40:27.289Z,19.41
2023-05-22T01:42:54.097Z,18.89
2023-05-22T01:45:21.474Z,19.04
2023-05-22T01:47:48.744Z,19.03
2023-05-22T01:50:17.640Z,18.96
2023-05-22T01:53:03.198Z,19.14
2023-05-22T01:55:46.270Z,19.26
2023-05-22T01:58:30.043Z,18.95
2023-05-22T02:01:00.967Z,19.21
2023-05-22T02:03:30.169Z,18.91
2023-05-22T02:05:58.552Z,19.06
2023-05-22T02:08:25.984Z,18.82
2023-05-22T02:10:55.157Z,19.16
2023-05-22T02:13:23.258Z,19.30
2023-05-22T02:15:49.929Z,19.28
2023-05-22T02:18:16.868Z,19.45
2023-05-22T02:20:45.794Z,19.59
2023-05-22T02:23:12.872Z,19.86
2023-05-22T02:25:39.757Z,19.95
2023-05-22T02:28:06.498Z,20.04
2023-05-22T02:30:33.289Z,20.16
2023-05-22T02:33:00.417Z,19.89
2023-05-22T02:35:27.139Z,19.72
2023-05-22T02:37:56.153Z,19.82
2023-05-22T02:40:23.436Z,19.56
2023-05-22T02:42:50.330Z,19.58
2023-05-22T02:45:17.802Z,19.67
2023-05-22T02:47:45.889Z,19.32
2023-05-22T02:50:13.109Z,18.97
2023-05-22T02:52:40.859Z,19.51
2023-05-22T02:55:08.755Z,19.13
2023-05-22T02:57:35.545Z,18.88
2023-05-22T03:00:02.332Z,18.96
2023-05-22T03:02:30.218Z,18.69
2023-05-22T03:04:59.182Z,19.03
2023-05-22T03:07:26.983Z,18.76
2023-05-22T03:09:54.759Z,18.95
2023-05-22T03:12:23.602Z,18.89
2023-05-22T03:14:50.284Z,18.83
2023-05-22T03:17:16.957Z,18.91
2023-05-22T03:19:43.594Z,18.93
2023-05-22T03:22:10.514Z,18.83
2023-05-22T03:24:42.100Z,18.93
2023-05-22T03:27:08.917Z,18.88
2023-05-22T03:29:41.659Z,18.77
2023-05-22T03:32:08.566Z,19.22
2023-05-22T03:34:36.100Z,19.30
2023-05-22T03:37:06.693Z,19.40
2023-05-22T03:39:33.382Z,19.40
2023-05-22T03:42:10.097Z,19.43
2023-05-22T03:44:36.777Z,19.47
2023-05-22T03:47:03.459Z,19.51
2023-05-22T03:49:31.222Z,19.51
2023-05-22T03:51:57.885Z,19.33
2023-05-22T03:54:24.564Z,19.45
2023-05-22T03:56:51.277Z,19.57
2023-05-22T03:59:19.892Z,19.33
2023-05-22T04:01:46.753Z,19.19
2023-05-22T04:04:13.576Z,18.99
2023-05-22T04:06:43.508Z,18.92
2023-05-22T04:09:12.991Z,18.82
2023-05-22T04:11:40.019Z,18.58
2023-05-22T04:14:06.858Z,18.62
2023-05-22T04:16:33.919Z,18.61
2023-05-22T04:19:03.673Z,18.58
2023-05-22T04:21:34.338Z,18.53
2023-05-22T04:24:06.336Z,18.59
2023-05-22T04:26:33.414Z,18.61
2023-05-22T04:29:00.427Z,18.58
2023-05-22T04:31:28.189Z,18.55
2023-05-22T04:33:57.357Z,18.62
2023-05-22T04:36:29.249Z,18.70
2023-05-22T04:38:56.397Z,18.59
2023-05-22T04:41:26.949Z,18.77
2023-05-22T04:43:54.582Z,18.88
2023-05-22T04:46:21.485Z,18.95
2023-05-22T04:48:48.384Z,18.93
2023-05-22T04:51:16.253Z,18.86
2023-05-22T04:53:43.321Z,18.95
2023-05-22T04:56:10.122Z,19.07
2023-05-22T04:58:40.310Z,19.03
2023-05-22T05:01:07.193Z,18.90
2023-05-22T05:03:34.529Z,18.99
2023-05-22T05:06:01.352Z,19.07
2023-05-22T05:08:28.171Z,19.28
2023-05-22T05:10:54.838Z,19.28
2023-05-22T05:13:22.918Z,19.34
2023-05-22T05:15:49.868Z,19.54
2023-05-22T05:18:17.359Z,19.79
2023-05-22T05:20:44.053Z,19.85
2023-05-22T05:23:10.929Z,20.00
2023-05-22T05:25:40.825Z,20.18
2023-05-22T05:28:11.369Z,20.07
2023-05-22T05:30:40.830Z,20.24
2023-05-22T05:33:28.768Z,20.23
2023-05-22T05:36:16.470Z,20.35
2023-05-22T05:38:45.219Z,20.39
2023-05-22T05:41:13.067Z,20.40
2023-05-22T05:43:42.083Z,20.32
2023-05-22T05:46:09.752Z,20.55
2023-05-22T05:48:36.587Z,20.51
2023-05-22T05:51:03.481Z,20.58
2023-05-22T05:53:36.381Z,20.80
2023-05-22T05:56:03.819Z,20.79
2023-05-22T05:58:31.704Z,21.03
2023-05-22T06:01:19.493Z,20.95
2023-05-22T06:03:47.255Z,20.63
2023-05-22T06:06:20.201Z,20.71
2023-05-22T06:09:18.707Z,20.74
2023-05-22T06:12:21.961Z,20.92
2023-05-22T06:14:48.897Z,21.05
2023-05-22T06:17:15.896Z,21.23
2023-05-22T06:19:51.186Z,21.12
2023-05-22T06:22:18.038Z,21.47
2023-05-22T06:24:48.368Z,21.33
2023-05-22T06:27:20.838Z,21.34
2023-05-22T06:29:47.728Z,21.34
2023-05-22T06:32:18.642Z,21.63
2023-05-22T06:34:47.294Z,21.59
2023-05-22T06:37:16.157Z,21.82
2023-05-22T06:39:44.655Z,21.97
2023-05-22T06:42:32.506Z,21.99
2023-05-22T06:45:20.052Z,22.14
2023-05-22T06:48:04.085Z,22.03
2023-05-22T06:50:34.629Z,22.29
2023-05-22T06:53:02.286Z,22.10
2023-05-22T06:55:29.877Z,22.34
2023-05-22T06:58:07.724Z,22.20
2023-05-22T07:00:36.121Z,22.03
2023-05-22T07:03:08.402Z,21.93
2023-05-22T07:06:08.815Z,22.15
2023-05-22T07:08:35.887Z,22.00
2023-05-22T07:11:06.809Z,22.28
2023-05-22T07:13:33.556Z,21.97
2023-05-22T07:16:00.957Z,22.08
2023-05-22T07:18:27.735Z,22.22
2023-05-22T07:20:54.464Z,22.45
2023-05-22T07:23:24.426Z,22.16
2023-05-22T07:25:53.283Z,22.45
2023-05-22T07:28:22.773Z,22.54
2023-05-22T07:31:02.721Z,22.37
2023-05-22T07:33:30.267Z,22.34
2023-05-22T07:35:57.423Z,22.41
2023-05-22T07:38:24.979Z,22.66
2023-05-22T07:40:59.249Z,22.72
2023-05-22T07:43:27.453Z,22.85
2023-05-22T07:45:56.522Z,23.04
2023-05-22T07:48:26.345Z,23.35
2023-05-22T07:50:54.688Z,23.19
2023-05-22T07:53:21.776Z,23.25
2023-05-22T07:55:51.048Z,23.30
2023-05-22T07:58:18.097Z,23.50
2023-05-22T08:00:46.511Z,23.61
2023-05-22T08:03:13.722Z,23.57
2023-05-22T08:05:40.964Z,23.29
2023-05-22T08:08:07.865Z,23.60
2023-05-22T08:10:52.124Z,23.49
2023-05-22T08:13:22.793Z,23.81
2023-05-22T08:16:00.225Z,23.97
2023-05-22T08:18:29.287Z,23.91
2023-05-22T08:20:56.490Z,24.14
2023-05-22T08:23:24.306Z,24.16
2023-05-22T08:25:50.882Z,24.23
2023-05-22T08:28:17.587Z,24.34
2023-05-22T08:30:44.408Z,24.37
2023-05-22T08:33:12.208Z,24.50
2023-05-22T08:35:42.121Z,24.30
2023-05-22T08:38:08.748Z,24.47
2023-05-22T08:40:37.952Z,24.63
2023-05-22T08:43:06.270Z,24.58
2023-05-22T08:45:36.100Z,24.65
2023-05-22T08:48:05.069Z,24.69
2023-05-22T08:50:32.216Z,24.59
2023-05-22T08:53:01.707Z,24.52
2023-05-22T08:55:28.481Z,24.83
2023-05-22T08:57:58.560Z,24.71
2023-05-22T09:00:25.300Z,24.99
2023-05-22T09:02:52.613Z,24.98
2023-05-22T09:05:19.635Z,25.24
2023-05-22T09:07:46.229Z,25.27
2023-05-22T09:10:14.390Z,25.38
2023-05-22T09:12:59.854Z,25.09
2023-05-22T09:15:29.054Z,25.48
2023-05-22T09:17:56.723Z,25.13
2023-05-22T09:20:23.675Z,25.55
2023-05-22T09:22:50.332Z,25.73
2023-05-22T09:25:21.292Z,25.58
2023-05-22T09:27:49.232Z,25.84
2023-05-22T09:30:16.977Z,25.96
2023-05-22T09:32:43.825Z,25.99
2023-05-22T09:35:10.532Z,26.00
2023-05-22T09:37:37.320Z,25.92
2023-05-22T09:40:14.292Z,26.15
2023-05-22T09:42:43.812Z,26.35
2023-05-22T09:45:10.614Z,26.37
2023-05-22T09:47:37.395Z,26.27
2023-05-22T09:50:07.234Z,26.64
2023-05-22T09:52:35.901Z,26.45
2023-05-22T09:55:04.786Z,26.60
2023-05-22T09:57:35.623Z,26.68
2023-05-22T10:00:04.693Z,26.99
2023-05-22T10:02:38.955Z,27.06
2023-05-22T10:05:09.517Z,27.25
2023-05-22T10:07:39.551Z,27.19
2023-05-22T10:10:11.474Z,27.43
2023-05-22T10:12:50.560Z,27.23
2023-05-22T10:15:17.825Z,27.47
2023-05-22T10:17:44.574Z,27.65
2023-05-22T10:20:12.270Z,27.93
2023-05-22T10:22:39.023Z,28.11
2023-05-22T10:25:07.421Z,28.27
2023-05-22T10:27:37.188Z,28.07
2023-05-22T10:30:16.270Z,28.12
2023-05-22T10:33:21.542Z,28.27
2023-05-22T10:36:07.138Z,28.06
2023-05-22T10:38:42.828Z,28.10
2023-05-22T10:41:10.235Z,28.29
2023-05-22T10:43:43.489Z,28.40
2023-05-22T10:46:12.170Z,28.67
2023-05-22T10:48:43.848Z,28.58
2023-05-22T10:51:12.776Z,28.62
2023-05-22T10:53:41.023Z,29.02
2023-05-22T10:56:10.900Z,29.24
2023-05-22T10:58:37.640Z,29.22
2023-05-22T11:01:10.655Z,29.47
2023-05-22T11:03:57.677Z,29.83
2023-05-22T11:06:30.237Z,30.12
2023-05-22T11:08:59.993Z,30.71
2023-05-22T11:11:27.575Z,30.94
2023-05-22T11:14:03.150Z,30.96
2023-05-22T11:16:33.731Z,31.28
2023-05-22T11:19:21.120Z,31.88
2023-05-22T11:21:49.114Z,32.40
2023-05-22T11:24:17.602Z,33.26
2023-05-22T11:26:44.686Z,33.68
2023-05-22T11:29:11.583Z,33.90
2023-05-22T11:31:38.880Z,33.44
2023-05-22T11:34:05.640Z,33.33
2023-05-22T11:36:32.500Z,33.83
2023-05-22T11:39:00.082Z,34.63
2023-05-22T11:41:33.954Z,34.48
2023-05-22T11:44:01.577Z,34.47
2023-05-22T11:46:32.775Z,34.15
2023-05-22T11:48:59.528Z,34.08
2023-05-22T11:51:27.337Z,33.30
2023-05-22T11:53:54.098Z,33.88
2023-05-22T11:56:23.709Z,34.10
2023-05-22T11:58:50.728Z,33.42
2023-05-22T12:01:17.346Z,33.79
2023-05-22T12:03:44.214Z,34.75
2023-05-22T12:06:11.079Z,36.04
2023-05-22T12:08:37.868Z,35.75
2023-05-22T12:11:05.126Z,35.90
2023-05-22T12:13:32.076Z,36.02
2023-05-22T12:16:02.092Z,34.48
2023-05-22T12:18:38.544Z,33.58
2023-05-22T12:21:06.158Z,33.12
2023-05-22T12:23:32.754Z,32.87
2023-05-22T12:26:00.549Z,33.37
2023-05-22T12:28:27.635Z,33.39
2023-05-22T12:30:55.156Z,33.47
2023-05-22T12:33:31.234Z,33.14
2023-05-22T12:35:58.808Z,32.40
2023-05-22T12:38:33.506Z,33.24
2023-05-22T12:41:01.837Z,34.15
2023-05-22T12:43:33.796Z,34.60
2023-05-22T12:46:02.476Z,34.57
2023-05-22T12:48:30.050Z,35.31
2023-05-22T12:50:56.719Z,34.62
2023-05-22T12:53:23.419Z,34.77
2023-05-22T12:55:50.156Z,35.00
2023-05-22T12:58:16.955Z,34.27
2023-05-22T13:00:43.551Z,34.33
2023-05-22T13:03:12.107Z,34.62
2023-05-22T13:05:38.934Z,34.58
2023-05-22T13:08:06.038Z,34.36
2023-05-22T13:10:32.698Z,33.49
2023-05-22T13:12:59.383Z,33.50
2023-05-22T13:15:29.377Z,32.88
2023-05-22T13:17:56.976Z,32.20
2023-05-22T13:20:23.779Z,32.07
2023-05-22T13:22:50.730Z,32.76
2023-05-22T13:25:19.083Z,32.98
2023-05-22T13:27:46.832Z,32.89
2023-05-22T13:30:13.578Z,33.05
2023-05-22T13:32:40.491Z,33.03
2023-05-22T13:35:07.303Z,32.92
2023-05-22T13:37:34.039Z,33.15
2023-05-22T13:40:00.676Z,32.82
2023-05-22T13:42:27.427Z,32.83
2023-05-22T13:44:54.073Z,33.02
2023-05-22T13:47:23.405Z,33.05
2023-05-22T13:49:52.361Z,33.12
2023-05-22T13:52:18.969Z,33.23
2023-05-22T13:54:45.754Z,33.02
2023-05-22T13:57:12.580Z,32.52
2023-05-22T13:59:39.371Z,32.38
2023-05-22T14:02:06.117Z,32.80
2023-05-22T14:04:32.901Z,32.69
2023-05-22T14:06:59.593Z,33.10
2023-05-22T14:09:26.446Z,33.16
2023-05-22T14:11:53.034Z,33.15
2023-05-22T14:14:23.834Z,33.02
2023-05-22T14:16:54.204Z,32.95
2023-05-22T14:19:21.151Z,32.98
2023-05-22T14:21:51.769Z,33.02
2023-05-22T14:24:18.600Z,32.68
2023-05-22T14:26:45.346Z,32.01
2023-05-22T14:29:12.561Z,31.91
2023-05-22T14:31:51.473Z,32.03
2023-05-22T14:34:18.764Z,31.72
2023-05-22T14:36:45.380Z,31.75
2023-05-22T14:39:12.065Z,31.46
2023-05-22T14:41:38.678Z,31.80
2023-05-22T14:44:05.374Z,32.07
2023-05-22T14:46:32.081Z,32.10
2023-05-22T14:48:58.788Z,32.20
2023-05-22T14:51:25.487Z,32.38
2023-05-22T14:53:52.156Z,32.64
2023-05-22T14:56:18.782Z,32.76
2023-05-22T14:58:45.429Z,32.76
2023-05-22T15:01:12.106Z,32.71
2023-05-22T15:03:39.008Z,32.67
2023-05-22T15:06:06.084Z,32.69
2023-05-22T15:08:32.775Z,32.54
2023-05-22T15:10:59.395Z,32.48
2023-05-22T15:13:26.091Z,32.34
2023-05-22T15:15:52.875Z,32.31
2023-05-22T15:18:22.173Z,31.84
2023-05-22T15:20:49.201Z,31.97
2023-05-22T15:23:16.463Z,31.98
2023-05-22T15:25:43.593Z,31.89
2023-05-22T15:28:10.322Z,31.80
2023-05-22T15:30:38.929Z,30.93
2023-05-22T15:33:05.609Z,31.14
2023-05-22T15:35:32.380Z,31.06
2023-05-22T15:37:59.197Z,30.77
2023-05-22T15:40:26.052Z,30.85
2023-05-22T15:42:53.203Z,30.39
2023-05-22T15:45:20.693Z,30.35
2023-05-22T15:47:47.587Z,29.88
2023-05-22T15:50:14.316Z,29.59
2023-05-22T15:52:41.183Z,29.82
2023-05-22T15:55:07.993Z,29.57
2023-05-22T15:57:34.713Z,29.39
2023-05-22T16:00:01.477Z,29.39
2023-05-22T16:02:31.137Z,29.37
2023-05-22T16:04:57.989Z,29.40
2023-05-22T16:07:24.600Z,29.33
2023-05-22T16:09:51.276Z,29.53
2023-05-22T16:12:18.253Z,29.46
2023-05-22T16:14:47.334Z,29.65
2023-05-22T16:17:13.937Z,29.46
2023-05-22T16:19:40.689Z,29.36
2023-05-22T16:22:07.372Z,29.34
2023-05-22T16:24:34.035Z,29.27
2023-05-22T16:27:00.776Z,29.25
2023-05-22T16:29:27.405Z,29.13
2023-05-22T16:31:54.090Z,29.15
2023-05-22T16:34:20.782Z,28.89
2023-05-22T16:36:47.703Z,28.88
2023-05-22T16:39:15.580Z,28.89
2023-05-22T16:41:42.224Z,28.86
2023-05-22T16:44:08.896Z,28.88
2023-05-22T16:46:35.645Z,28.71
2023-05-22T16:49:02.322Z,28.64
2023-05-22T16:51:28.956Z,28.57
2023-05-22T16:53:55.635Z,28.61
2023-05-22T16:56:24.804Z,28.52
2023-05-22T16:58:51.569Z,28.55
2023-05-22T17:01:18.761Z,28.56
2023-05-22T17:03:45.611Z,28.33
2023-05-22T17:06:12.271Z,28.41
2023-05-22T17:08:38.883Z,28.26
2023-05-22T17:11:05.609Z,28.19
2023-05-22T17:13:32.367Z,28.02
2023-05-22T17:15:58.974Z,28.17
2023-05-22T17:18:26.000Z,28.08
2023-05-22T17:20:54.096Z,28.00
2023-05-22T17:23:20.936Z,27.97
2023-05-22T17:25:47.890Z,27.95
2023-05-22T17:28:14.744Z,27.98
2023-05-22T17:30:42.484Z,28.05
2023-05-22T17:33:09.557Z,27.86
2023-05-22T17:35:38.450Z,27.85
2023-05-22T17:38:05.235Z,27.93
2023-05-22T17:40:43.908Z,27.77
2023-05-22T17:43:11.844Z,27.58
2023-05-22T17:45:38.491Z,27.54
2023-05-22T17:48:06.314Z,27.43
2023-05-22T17:50:33.096Z,27.41
2023-05-22T17:52:59.848Z,27.44
2023-05-22T17:55:28.762Z,27.51
2023-05-22T17:57:56.137Z,27.39
2023-05-22T18:00:22.795Z,27.33
2023-05-22T18:02:49.569Z,27.36
2023-05-22T18:05:16.420Z,27.28
2023-05-22T18:07:43.609Z,27.22
2023-05-22T18:10:10.340Z,27.01
2023-05-22T18:12:38.276Z,27.12
2023-05-22T18:15:05.589Z,26.92
2023-05-22T18:17:32.630Z,26.76
2023-05-22T18:19:59.421Z,26.76
2023-05-22T18:22:26.061Z,26.79
2023-05-22T18:24:52.688Z,26.42
2023-05-22T18:27:19.375Z,26.41
2023-05-22T18:29:48.596Z,26.24
2023-05-22T18:32:15.213Z,26.11
2023-05-22T18:34:42.042Z,26.04
2023-05-22T18:37:11.940Z,26.19
2023-05-22T18:39:38.621Z,26.07
2023-05-22T18:42:05.592Z,26.21
2023-05-22T18:44:32.432Z,26.06
2023-05-22T18:46:59.144Z,25.99
2023-05-22T18:49:26.075Z,25.82
2023-05-22T18:51:52.724Z,25.88
2023-05-22T18:54:19.366Z,25.84
2023-05-22T18:56:46.047Z,25.92
2023-05-22T18:59:12.690Z,25.89
2023-05-22T19:01:39.535Z,25.71
2023-05-22T19:04:07.111Z,25.84
2023-05-22T19:06:34.218Z,25.70
2023-05-22T19:09:00.852Z,25.72
2023-05-22T19:11:27.676Z,25.78
2023-05-22T19:13:54.589Z,25.74
2023-05-22T19:16:21.223Z,25.75
2023-05-22T19:18:48.126Z,25.27
2023-05-22T19:21:14.725Z,24.33
2023-05-22T19:23:41.400Z,24.27
2023-05-22T19:26:08.151Z,24.00
2023-05-22T19:28:34.764Z,23.66
2023-05-22T19:31:03.556Z,23.55
2023-05-22T19:33:31.766Z,22.99
2023-05-22T19:35:58.829Z,21.60
2023-05-22T19:38:25.968Z,21.26
2023-05-22T19:40:52.726Z,21.49
2023-05-22T19:43:19.618Z,21.05
2023-05-22T19:45:46.531Z,20.97
2023-05-22T19:48:13.500Z,21.27
2023-05-22T19:50:41.182Z,21.40
2023-05-22T19:53:08.135Z,21.18
2023-05-22T19:55:35.296Z,21.24
2023-05-22T19:58:04.334Z,21.19
2023-05-22T20:00:31.901Z,20.69
2023-05-22T20:02:58.569Z,20.69
2023-05-22T20:05:27.817Z,20.82
2023-05-22T20:07:57.093Z,20.95
2023-05-22T20:10:26.801Z,21.17
2023-05-22T20:12:54.196Z,20.95
2023-05-22T20:15:28.743Z,20.70
2023-05-22T20:17:55.641Z,20.45
2023-05-22T20:20:24.635Z,20.21
2023-05-22T20:22:52.818Z,20.46
2023-05-22T20:25:21.267Z,20.36
2023-05-22T20:27:50.218Z,20.13
2023-05-22T20:30:16.787Z,19.70
2023-05-22T20:32:45.772Z,19.97
2023-05-22T20:35:13.236Z,19.73
2023-05-22T20:37:41.690Z,19.97
2023-05-22T20:40:09.600Z,20.14
2023-05-22T20:42:37.266Z,20.18
2023-05-22T20:45:07.555Z,20.34
2023-05-22T20:47:35.996Z,20.20
2023-05-22T20:50:02.767Z,20.43
2023-05-22T20:52:33.739Z,20.34
2023-05-22T20:55:00.617Z,20.45
2023-05-22T20:57:27.284Z,20.68
2023-05-22T20:59:54.174Z,20.71
2023-05-22T21:02:21.289Z,20.88
2023-05-22T21:04:47.891Z,20.71
2023-05-22T21:07:14.475Z,20.71
2023-05-22T21:09:44.261Z,20.84
2023-05-22T21:12:11.003Z,20.58
2023-05-22T21:14:39.903Z,20.65
2023-05-22T21:17:06.964Z,20.70
2023-05-22T21:19:33.769Z,20.76
2023-05-22T21:22:00.595Z,20.56
2023-05-22T21:24:31.591Z,20.71
2023-05-22T21:27:01.204Z,20.69
2023-05-22T21:29:27.902Z,20.75
2023-05-22T21:31:54.538Z,20.04
2023-05-22T21:34:23.379Z,20.36
2023-05-22T21:36:50.482Z,20.89
2023-05-22T21:39:17.179Z,20.91
2023-05-22T21:41:43.982Z,20.87
2023-05-22T21:44:10.652Z,20.32
2023-05-22T21:46:37.476Z,19.85
2023-05-22T21:49:06.273Z,19.85
2023-05-22T21:51:33.067Z,19.73
2023-05-22T21:53:59.844Z,20.41
2023-05-22T21:56:27.109Z,20.54
2023-05-22T21:58:53.745Z,20.55
2023-05-22T22:01:20.546Z,20.64
2023-05-22T22:03:47.280Z,20.99
2023-05-22T22:06:14.012Z,20.91
2023-05-22T22:08:40.774Z,20.97
2023-05-22T22:11:07.379Z,20.89
2023-05-22T22:13:33.980Z,20.77
2023-05-22T22:16:00.658Z,20.81
2023-05-22T22:18:34.622Z,20.86
2023-05-22T22:21:02.424Z,20.58
2023-05-22T22:23:29.626Z,20.46
2023-05-22T22:25:56.317Z,20.80
2023-05-22T22:28:22.996Z,20.67
2023-05-22T22:30:49.694Z,20.85
2023-05-22T22:33:16.352Z,20.72
2023-05-22T22:35:43.163Z,20.48
2023-05-22T22:38:09.869Z,20.38
2023-05-22T22:40:39.055Z,20.15
2023-05-22T22:43:08.364Z,20.60
2023-05-22T22:45:39.942Z,20.33
2023-05-22T22:48:07.044Z,19.93
2023-05-22T22:50:33.776Z,19.85
2023-05-22T22:53:00.666Z,19.88
2023-05-22T22:55:32.823Z,19.98
2023-05-22T22:58:01.932Z,20.28
2023-05-22T23:00:28.535Z,19.79
2023-05-22T23:02:55.404Z,19.88
2023-05-22T23:05:22.136Z,20.15
2023-05-22T23:07:48.893Z,20.29
2023-05-22T23:10:15.808Z,20.12
2023-05-22T23:12:42.884Z,19.90
2023-05-22T23:15:18.494Z,19.85
2023-05-22T23:17:50.244Z,19.94
2023-05-22T23:20:18.433Z,19.79
2023-05-22T23:22:45.021Z,19.71
2023-05-22T23:25:11.680Z,19.90
2023-05-22T23:27:38.259Z,20.02
2023-05-22T23:30:06.278Z,20.00
2023-05-22T23:32:32.963Z,19.95
2023-05-22T23:34:59.633Z,19.73
2023-05-22T23:37:27.346Z,19.69
2023-05-22T23:39:56.115Z,19.77
2023-05-22T23:42:22.973Z,19.43
2023-05-22T23:44:52.121Z,19.17
2023-05-22T23:47:19.096Z,19.26
2023-05-22T23:49:45.800Z,19.67
2023-05-22T23:52:13.126Z,19.40
2023-05-22T23:54:39.909Z,19.29
2023-05-22T23:57:10.546Z,19.33
2023-05-22T23:59:37.343Z,19.37
